sensor_id;sensor_type;location;lat;lon;timestamp;pressure;altitude;pressure_sealevel;temperature;humidity
45078;BME280;60508;42.622;25.416;2022-12-10T00:00:20;96367.81;;;6.81;97.61
45078;BME280;60508;42.622;25.416;2022-12-10T00:02:46;96352.75;;;6.87;97.69
45078;BME280;60508;42.622;25.416;2022-12-10T00:05:12;96356.44;;;6.74;96.39
45078;BME280;60508;42.622;25.416;2022-12-10T00:07:38;96352.75;;;6.75;94.75
45078;BME280;60508;42.622;25.416;2022-12-10T00:10:04;96338.44;;;6.69;95.26
45078;BME280;60508;42.622;25.416;2022-12-10T00:12:30;96344.25;;;6.66;95.02
45078;BME280;60508;42.622;25.416;2022-12-10T00:14:56;96350.03;;;6.63;95.91
45078;BME280;60508;42.622;25.416;2022-12-10T00:17:21;96346.34;;;6.64;95.11
45078;BME280;60508;42.622;25.416;2022-12-10T00:19:47;96350.94;;;6.57;95.49
45078;BME280;60508;42.622;25.416;2022-12-10T00:22:13;96342.56;;;6.42;96.34
45078;BME280;60508;42.622;25.416;2022-12-10T00:24:39;96338.78;;;6.61;96.67
45078;BME280;60508;42.622;25.416;2022-12-10T00:27:05;96340.41;;;6.62;96.27
45078;BME280;60508;42.622;25.416;2022-12-10T00:29:31;96339.13;;;6.76;95.19
45078;BME280;60508;42.622;25.416;2022-12-10T00:31:57;96334.41;;;6.79;94.08
45078;BME280;60508;42.622;25.416;2022-12-10T00:34:23;96340.91;;;6.83;93.09
45078;BME280;60508;42.622;25.416;2022-12-10T00:36:49;96351.34;;;6.72;92.10
45078;BME280;60508;42.622;25.416;2022-12-10T00:39:18;96346.28;;;6.52;92.68
45078;BME280;60508;42.622;25.416;2022-12-10T00:41:45;96343.38;;;6.42;93.25
45078;BME280;60508;42.622;25.416;2022-12-10T00:44:11;96340.22;;;6.33;94.26
45078;BME280;60508;42.622;25.416;2022-12-10T00:46:37;96345.09;;;6.36;94.49
45078;BME280;60508;42.622;25.416;2022-12-10T00:49:04;96346.13;;;6.35;94.33
45078;BME280;60508;42.622;25.416;2022-12-10T00:51:30;96344.38;;;6.41;94.48
45078;BME280;60508;42.622;25.416;2022-12-10T00:53:57;96337.44;;;6.40;93.95
45078;BME280;60508;42.622;25.416;2022-12-10T00:56:26;96329.66;;;6.38;93.70
45078;BME280;60508;42.622;25.416;2022-12-10T00:58:52;96334.50;;;6.30;93.65
45078;BME280;60508;42.622;25.416;2022-12-10T01:01:28;96353.78;;;6.32;94.05
45078;BME280;60508;42.622;25.416;2022-12-10T01:03:59;96356.13;;;6.40;93.95
45078;BME280;60508;42.622;25.416;2022-12-10T01:06:31;96344.31;;;6.48;94.05
45078;BME280;60508;42.622;25.416;2022-12-10T01:08:59;96343.00;;;6.38;94.72
45078;BME280;60508;42.622;25.416;2022-12-10T01:11:29;96344.91;;;6.50;94.55
45078;BME280;60508;42.622;25.416;2022-12-10T01:13:55;96336.22;;;6.66;93.60
45078;BME280;60508;42.622;25.416;2022-12-10T01:16:22;96333.78;;;6.65;92.66
45078;BME280;60508;42.622;25.416;2022-12-10T01:18:53;96327.31;;;6.72;91.88
45078;BME280;60508;42.622;25.416;2022-12-10T01:21:19;96336.56;;;6.58;91.97
45078;BME280;60508;42.622;25.416;2022-12-10T01:23:46;96330.53;;;6.63;91.60
45078;BME280;60508;42.622;25.416;2022-12-10T01:26:19;96322.75;;;6.61;91.07
45078;BME280;60508;42.622;25.416;2022-12-10T01:28:46;96329.63;;;6.69;90.61
45078;BME280;60508;42.622;25.416;2022-12-10T01:31:18;96334.00;;;6.63;90.44
45078;BME280;60508;42.622;25.416;2022-12-10T01:33:45;96330.53;;;6.63;90.67
45078;BME280;60508;42.622;25.416;2022-12-10T01:36:15;96324.25;;;6.57;92.42
45078;BME280;60508;42.622;25.416;2022-12-10T01:38:43;96321.56;;;6.45;93.32
45078;BME280;60508;42.622;25.416;2022-12-10T01:41:18;96317.53;;;6.66;94.04
45078;BME280;60508;42.622;25.416;2022-12-10T01:44:56;96305.00;;;6.67;92.39
45078;BME280;60508;42.622;25.416;2022-12-10T01:46:56;96306.72;;;6.49;94.08
45078;BME280;60508;42.622;25.416;2022-12-10T01:49:34;96314.19;;;6.59;94.29
45078;BME280;60508;42.622;25.416;2022-12-10T01:52:02;96318.56;;;6.65;94.00
45078;BME280;60508;42.622;25.416;2022-12-10T01:54:30;96323.47;;;6.68;92.46
45078;BME280;60508;42.622;25.416;2022-12-10T01:57:06;96331.81;;;6.60;92.41
45078;BME280;60508;42.622;25.416;2022-12-10T01:59:34;96330.28;;;6.52;92.69
45078;BME280;60508;42.622;25.416;2022-12-10T02:15:44;96309.41;;;6.73;93.73
45078;BME280;60508;42.622;25.416;2022-12-10T02:18:38;96292.03;;;6.70;92.97
45078;BME280;60508;42.622;25.416;2022-12-10T02:21:15;96295.63;;;6.76;92.49
45078;BME280;60508;42.622;25.416;2022-12-10T02:23:46;96305.00;;;6.67;92.83
45078;BME280;60508;42.622;25.416;2022-12-10T02:26:33;96292.47;;;6.67;92.49
45078;BME280;60508;42.622;25.416;2022-12-10T02:29:18;96286.06;;;6.56;92.55
45078;BME280;60508;42.622;25.416;2022-12-10T02:32:04;96293.53;;;6.66;91.95
45078;BME280;60508;42.622;25.416;2022-12-10T02:34:37;96276.94;;;6.64;92.21
45078;BME280;60508;42.622;25.416;2022-12-10T02:37:08;96275.75;;;6.48;93.26
45078;BME280;60508;42.622;25.416;2022-12-10T02:39:40;96275.00;;;6.29;94.92
45078;BME280;60508;42.622;25.416;2022-12-10T02:42:08;96277.78;;;6.34;96.41
45078;BME280;60508;42.622;25.416;2022-12-10T02:44:37;96270.38;;;6.36;96.89
45078;BME280;60508;42.622;25.416;2022-12-10T02:47:07;96284.88;;;6.40;95.98
45078;BME280;60508;42.622;25.416;2022-12-10T02:49:40;96279.44;;;6.47;95.23
45078;BME280;60508;42.622;25.416;2022-12-10T02:52:13;96267.00;;;6.41;94.71
45078;BME280;60508;42.622;25.416;2022-12-10T02:54:45;96263.53;;;6.40;94.72
45078;BME280;60508;42.622;25.416;2022-12-10T02:57:32;96276.53;;;6.49;94.38
45078;BME280;60508;42.622;25.416;2022-12-10T03:05:22;96268.88;;;6.40;93.61
45078;BME280;60508;42.622;25.416;2022-12-10T03:07:58;96270.88;;;6.57;93.25
45078;BME280;60508;42.622;25.416;2022-12-10T03:10:55;96255.47;;;6.59;93.42
45078;BME280;60508;42.622;25.416;2022-12-10T03:13:32;96251.28;;;6.75;92.55
45078;BME280;60508;42.622;25.416;2022-12-10T03:16:04;96254.06;;;6.92;91.29
45078;BME280;60508;42.622;25.416;2022-12-10T03:18:31;96254.63;;;6.82;91.83
45078;BME280;60508;42.622;25.416;2022-12-10T03:21:02;96260.31;;;6.86;92.35
45078;BME280;60508;42.622;25.416;2022-12-10T03:23:33;96258.00;;;6.89;92.84
45078;BME280;60508;42.622;25.416;2022-12-10T03:26:02;96265.78;;;6.91;93.08
45078;BME280;60508;42.622;25.416;2022-12-10T03:28:32;96264.16;;;6.90;92.84
45078;BME280;60508;42.622;25.416;2022-12-10T03:31:00;96259.97;;;6.82;93.21
45078;BME280;60508;42.622;25.416;2022-12-10T03:33:28;96257.66;;;6.62;95.08
45078;BME280;60508;42.622;25.416;2022-12-10T03:35:55;96259.53;;;6.73;95.40
45078;BME280;60508;42.622;25.416;2022-12-10T03:38:21;96261.97;;;6.75;96.01
45078;BME280;60508;42.622;25.416;2022-12-10T03:40:47;96265.91;;;6.84;96.51
45078;BME280;60508;42.622;25.416;2022-12-10T03:43:13;96255.69;;;6.93;96.32
45078;BME280;60508;42.622;25.416;2022-12-10T03:45:40;96250.69;;;6.73;96.49
45078;BME280;60508;42.622;25.416;2022-12-10T03:48:06;96246.41;;;6.72;97.27
45078;BME280;60508;42.622;25.416;2022-12-10T03:50:32;96247.09;;;6.79;97.38
45078;BME280;60508;42.622;25.416;2022-12-10T03:52:58;96250.81;;;6.78;97.28
45078;BME280;60508;42.622;25.416;2022-12-10T03:55:24;96254.41;;;6.84;98.12
45078;BME280;60508;42.622;25.416;2022-12-10T03:57:51;96262.53;;;6.89;97.41
45078;BME280;60508;42.622;25.416;2022-12-10T04:00:17;96256.50;;;6.93;97.41
45078;BME280;60508;42.622;25.416;2022-12-10T04:02:43;96252.44;;;7.03;96.92
45078;BME280;60508;42.622;25.416;2022-12-10T04:05:09;96242.09;;;7.06;96.41
45078;BME280;60508;42.622;25.416;2022-12-10T04:07:35;96232.81;;;7.09;95.79
45078;BME280;60508;42.622;25.416;2022-12-10T04:10:02;96238.50;;;7.12;95.35
45078;BME280;60508;42.622;25.416;2022-12-10T04:12:28;96235.81;;;7.12;95.69
45078;BME280;60508;42.622;25.416;2022-12-10T04:14:54;96237.66;;;7.24;95.26
45078;BME280;60508;42.622;25.416;2022-12-10T04:17:38;96236.59;;;7.25;95.22
45078;BME280;60508;42.622;25.416;2022-12-10T04:20:05;96228.81;;;7.35;95.49
45078;BME280;60508;42.622;25.416;2022-12-10T04:22:52;96244.41;;;7.55;93.57
45078;BME280;60508;42.622;25.416;2022-12-10T04:25:36;96240.16;;;7.42;92.54
45078;BME280;60508;42.622;25.416;2022-12-10T04:28:21;96245.75;;;7.41;92.93
45078;BME280;60508;42.622;25.416;2022-12-10T04:30:47;96249.09;;;7.48;92.24
45078;BME280;60508;42.622;25.416;2022-12-10T04:33:13;96238.91;;;7.33;90.59
45078;BME280;60508;42.622;25.416;2022-12-10T04:35:39;96246.69;;;7.35;91.44
45078;BME280;60508;42.622;25.416;2022-12-10T04:38:05;96237.75;;;7.29;91.71
45078;BME280;60508;42.622;25.416;2022-12-10T04:40:31;96244.72;;;7.30;91.89
45078;BME280;60508;42.622;25.416;2022-12-10T04:42:57;96245.06;;;7.34;92.32
45078;BME280;60508;42.622;25.416;2022-12-10T04:45:23;96233.53;;;7.33;91.85
45078;BME280;60508;42.622;25.416;2022-12-10T04:47:48;96233.09;;;7.36;91.70
45078;BME280;60508;42.622;25.416;2022-12-10T04:50:14;96229.75;;;7.29;91.85
45078;BME280;60508;42.622;25.416;2022-12-10T04:52:40;96233.22;;;7.29;92.39
45078;BME280;60508;42.622;25.416;2022-12-10T04:55:06;96230.88;;;7.33;92.36
45078;BME280;60508;42.622;25.416;2022-12-10T04:57:33;96226.84;;;7.30;93.14
45078;BME280;60508;42.622;25.416;2022-12-10T05:00:00;96226.22;;;7.40;93.82
45078;BME280;60508;42.622;25.416;2022-12-10T05:02:26;96213.25;;;7.32;92.92
45078;BME280;60508;42.622;25.416;2022-12-10T05:04:51;96227.72;;;7.36;93.02
45078;BME280;60508;42.622;25.416;2022-12-10T05:07:17;96224.63;;;7.27;93.78
45078;BME280;60508;42.622;25.416;2022-12-10T05:09:43;96227.47;;;7.09;97.36
45078;BME280;60508;42.622;25.416;2022-12-10T05:12:09;96228.00;;;7.23;96.95
45078;BME280;60508;42.622;25.416;2022-12-10T05:14:35;96229.97;;;7.27;96.69
45078;BME280;60508;42.622;25.416;2022-12-10T05:17:02;96230.53;;;7.41;96.49
45078;BME280;60508;42.622;25.416;2022-12-10T05:19:27;96228.94;;;7.28;97.44
45078;BME280;60508;42.622;25.416;2022-12-10T05:21:53;96223.94;;;7.32;97.95
45078;BME280;60508;42.622;25.416;2022-12-10T05:24:38;96227.63;;;7.31;97.89
45078;BME280;60508;42.622;25.416;2022-12-10T05:27:04;96226.56;;;7.44;97.08
45078;BME280;60508;42.622;25.416;2022-12-10T05:29:31;96227.59;;;7.55;95.06
45078;BME280;60508;42.622;25.416;2022-12-10T05:31:57;96233.88;;;7.48;93.68
45078;BME280;60508;42.622;25.416;2022-12-10T05:34:23;96231.28;;;7.54;93.42
45078;BME280;60508;42.622;25.416;2022-12-10T05:36:52;96239.06;;;7.55;92.51
45078;BME280;60508;42.622;25.416;2022-12-10T05:39:18;96240.63;;;7.51;92.58
45078;BME280;60508;42.622;25.416;2022-12-10T05:41:44;96246.38;;;7.60;93.01
45078;BME280;60508;42.622;25.416;2022-12-10T05:44:11;96233.22;;;7.41;93.49
45078;BME280;60508;42.622;25.416;2022-12-10T05:46:37;96240.72;;;7.44;93.99
45078;BME280;60508;42.622;25.416;2022-12-10T05:49:04;96229.28;;;7.32;94.62
45078;BME280;60508;42.622;25.416;2022-12-10T05:51:33;96224.41;;;7.29;95.29
45078;BME280;60508;42.622;25.416;2022-12-10T05:54:00;96228.34;;;7.38;95.59
45078;BME280;60508;42.622;25.416;2022-12-10T05:56:29;96238.19;;;7.49;95.53
45078;BME280;60508;42.622;25.416;2022-12-10T05:59:01;96231.75;;;7.62;94.50
45078;BME280;60508;42.622;25.416;2022-12-10T06:01:30;96240.19;;;7.71;93.58
45078;BME280;60508;42.622;25.416;2022-12-10T06:03:58;96239.72;;;7.74;93.54
45078;BME280;60508;42.622;25.416;2022-12-10T06:06:29;96233.94;;;7.65;93.34
45078;BME280;60508;42.622;25.416;2022-12-10T06:08:56;96232.25;;;7.76;93.58
45078;BME280;60508;42.622;25.416;2022-12-10T06:11:22;96220.56;;;7.65;94.14
45078;BME280;60508;42.622;25.416;2022-12-10T06:13:48;96223.34;;;7.71;94.85
45078;BME280;60508;42.622;25.416;2022-12-10T06:16:14;96223.53;;;7.81;95.59
45078;BME280;60508;42.622;25.416;2022-12-10T06:18:41;96225.16;;;7.82;95.94
45078;BME280;60508;42.622;25.416;2022-12-10T06:21:13;96228.34;;;7.67;99.13
45078;BME280;60508;42.622;25.416;2022-12-10T06:23:40;96221.81;;;7.75;100.00
45078;BME280;60508;42.622;25.416;2022-12-10T06:28:37;96206.13;;;7.95;98.88
45078;BME280;60508;42.622;25.416;2022-12-10T06:31:03;96208.41;;;7.86;99.31
45078;BME280;60508;42.622;25.416;2022-12-10T06:33:30;96222.03;;;8.02;99.10
45078;BME280;60508;42.622;25.416;2022-12-10T06:35:55;96222.06;;;8.19;98.90
45078;BME280;60508;42.622;25.416;2022-12-10T06:38:21;96230.41;;;8.22;98.13
45078;BME280;60508;42.622;25.416;2022-12-10T06:40:48;96215.81;;;8.30;98.09
45078;BME280;60508;42.622;25.416;2022-12-10T06:43:14;96221.19;;;8.47;96.85
45078;BME280;60508;42.622;25.416;2022-12-10T06:45:41;96212.94;;;8.49;96.63
45078;BME280;60508;42.622;25.416;2022-12-10T06:48:08;96217.06;;;8.56;96.79
45078;BME280;60508;42.622;25.416;2022-12-10T06:50:34;96222.19;;;8.58;97.28
45078;BME280;60508;42.622;25.416;2022-12-10T06:53:01;96228.59;;;8.74;96.74
45078;BME280;60508;42.622;25.416;2022-12-10T06:55:27;96216.97;;;8.68;96.36
45078;BME280;60508;42.622;25.416;2022-12-10T06:57:53;96213.81;;;8.71;96.58
45078;BME280;60508;42.622;25.416;2022-12-10T07:00:20;96210.22;;;8.83;96.27
45078;BME280;60508;42.622;25.416;2022-12-10T07:02:46;96210.53;;;8.86;95.99
45078;BME280;60508;42.622;25.416;2022-12-10T07:05:13;96211.19;;;8.93;94.83
45078;BME280;60508;42.622;25.416;2022-12-10T07:07:39;96212.53;;;8.96;96.60
45078;BME280;60508;42.622;25.416;2022-12-10T07:10:07;96210.75;;;9.02;95.86
45078;BME280;60508;42.622;25.416;2022-12-10T07:12:33;96209.44;;;9.04;94.48
45078;BME280;60508;42.622;25.416;2022-12-10T07:14:58;96218.38;;;9.10;93.63
45078;BME280;60508;42.622;25.416;2022-12-10T07:17:24;96212.56;;;9.18;93.83
45078;BME280;60508;42.622;25.416;2022-12-10T07:19:50;96211.09;;;9.27;93.63
45078;BME280;60508;42.622;25.416;2022-12-10T07:22:16;96224.13;;;9.41;92.54
45078;BME280;60508;42.622;25.416;2022-12-10T07:24:43;96224.22;;;9.51;91.44
45078;BME280;60508;42.622;25.416;2022-12-10T07:27:09;96226.81;;;9.63;90.57
45078;BME280;60508;42.622;25.416;2022-12-10T07:29:35;96205.78;;;9.55;90.38
45078;BME280;60508;42.622;25.416;2022-12-10T07:32:01;96211.56;;;9.68;90.01
45078;BME280;60508;42.622;25.416;2022-12-10T07:34:27;96208.09;;;9.68;89.89
45078;BME280;60508;42.622;25.416;2022-12-10T07:36:53;96194.06;;;9.61;91.14
45078;BME280;60508;42.622;25.416;2022-12-10T07:39:20;96213.91;;;9.60;91.73
45078;BME280;60508;42.622;25.416;2022-12-10T07:41:51;96201.28;;;9.60;91.51
45078;BME280;60508;42.622;25.416;2022-12-10T07:44:23;96195.63;;;9.57;92.60
45078;BME280;60508;42.622;25.416;2022-12-10T07:46:50;96205.66;;;9.66;93.32
45078;BME280;60508;42.622;25.416;2022-12-10T07:49:17;96200.28;;;9.66;93.14
45078;BME280;60508;42.622;25.416;2022-12-10T07:51:47;96194.22;;;9.76;92.38
45078;BME280;60508;42.622;25.416;2022-12-10T07:54:14;96195.91;;;9.82;93.06
45078;BME280;60508;42.622;25.416;2022-12-10T07:56:40;96200.34;;;9.99;93.06
45078;BME280;60508;42.622;25.416;2022-12-10T07:59:06;96195.38;;;10.13;92.74
45078;BME280;60508;42.622;25.416;2022-12-10T08:01:32;96193.09;;;10.32;92.68
45078;BME280;60508;42.622;25.416;2022-12-10T08:03:58;96201.34;;;10.47;91.97
45078;BME280;60508;42.622;25.416;2022-12-10T08:06:27;96203.56;;;10.60;91.25
45078;BME280;60508;42.622;25.416;2022-12-10T08:08:54;96206.91;;;10.73;89.85
45078;BME280;60508;42.622;25.416;2022-12-10T08:11:21;96202.16;;;10.85;89.75
45078;BME280;60508;42.622;25.416;2022-12-10T08:13:48;96198.09;;;10.83;89.45
45078;BME280;60508;42.622;25.416;2022-12-10T08:16:18;96191.50;;;11.11;88.82
45078;BME280;60508;42.622;25.416;2022-12-10T08:18:44;96188.66;;;11.28;87.80
45078;BME280;60508;42.622;25.416;2022-12-10T08:21:15;96191.63;;;11.37;87.03
45078;BME280;60508;42.622;25.416;2022-12-10T08:23:44;96190.56;;;11.38;87.12
45078;BME280;60508;42.622;25.416;2022-12-10T08:26:12;96194.63;;;11.40;87.13
45078;BME280;60508;42.622;25.416;2022-12-10T08:28:38;96190.91;;;11.57;86.89
45078;BME280;60508;42.622;25.416;2022-12-10T08:31:06;96192.56;;;11.68;84.97
45078;BME280;60508;42.622;25.416;2022-12-10T08:33:33;96182.34;;;11.75;84.88
45078;BME280;60508;42.622;25.416;2022-12-10T08:36:00;96188.09;;;11.94;84.54
45078;BME280;60508;42.622;25.416;2022-12-10T08:42:45;96184.09;;;17.59;63.24
45078;BME280;60508;42.622;25.416;2022-12-10T08:45:11;96169.72;;;19.79;54.31
45078;BME280;60508;42.622;25.416;2022-12-10T08:47:37;96194.28;;;21.58;48.19
45078;BME280;60508;42.622;25.416;2022-12-10T08:50:03;96176.69;;;22.94;44.22
45078;BME280;60508;42.622;25.416;2022-12-10T08:52:29;96170.47;;;24.17;40.34
45078;BME280;60508;42.622;25.416;2022-12-10T08:54:55;96167.75;;;24.86;39.20
45078;BME280;60508;42.622;25.416;2022-12-10T08:57:21;96161.34;;;25.42;38.10
45078;BME280;60508;42.622;25.416;2022-12-10T08:59:47;96163.06;;;26.53;36.23
45078;BME280;60508;42.622;25.416;2022-12-10T09:02:13;96167.91;;;26.99;34.78
45078;BME280;60508;42.622;25.416;2022-12-10T09:04:38;96161.97;;;26.77;34.36
45078;BME280;60508;42.622;25.416;2022-12-10T09:07:07;96165.50;;;25.20;36.62
45078;BME280;60508;42.622;25.416;2022-12-10T09:09:32;96158.00;;;25.04;36.74
45078;BME280;60508;42.622;25.416;2022-12-10T09:11:58;96150.53;;;24.73;37.34
45078;BME280;60508;42.622;25.416;2022-12-10T09:14:25;96142.94;;;24.01;38.68
45078;BME280;60508;42.622;25.416;2022-12-10T09:16:51;96148.53;;;24.04;38.72
45078;BME280;60508;42.622;25.416;2022-12-10T09:19:17;96137.41;;;25.42;36.62
45078;BME280;60508;42.622;25.416;2022-12-10T09:21:43;96139.72;;;26.86;34.31
45078;BME280;60508;42.622;25.416;2022-12-10T09:24:09;96140.69;;;27.93;32.20
45078;BME280;60508;42.622;25.416;2022-12-10T09:26:34;96133.59;;;28.83;30.84
45078;BME280;60508;42.622;25.416;2022-12-10T09:29:00;96129.72;;;29.32;30.42
45078;BME280;60508;42.622;25.416;2022-12-10T09:31:26;96119.91;;;29.39;29.72
45078;BME280;60508;42.622;25.416;2022-12-10T09:33:53;96111.28;;;28.35;30.80
45078;BME280;60508;42.622;25.416;2022-12-10T09:36:20;96101.72;;;25.97;34.43
45078;BME280;60508;42.622;25.416;2022-12-10T09:38:47;96096.75;;;25.04;36.79
45078;BME280;60508;42.622;25.416;2022-12-10T09:46:46;96086.63;;;28.19;32.53
45078;BME280;60508;42.622;25.416;2022-12-10T09:52:00;96065.63;;;32.11;26.78
45078;BME280;60508;42.622;25.416;2022-12-10T09:56:57;96063.53;;;34.63;23.66
45078;BME280;60508;42.622;25.416;2022-12-10T09:59:30;96056.69;;;35.22;22.84
45078;BME280;60508;42.622;25.416;2022-12-10T10:04:39;96056.19;;;35.03;22.65
45078;BME280;60508;42.622;25.416;2022-12-10T10:07:05;96040.47;;;35.40;22.35
45078;BME280;60508;42.622;25.416;2022-12-10T10:09:36;96041.06;;;36.92;21.41
45078;BME280;60508;42.622;25.416;2022-12-10T10:12:12;96039.03;;;38.04;19.86
45078;BME280;60508;42.622;25.416;2022-12-10T10:14:40;96037.91;;;37.56;19.58
45078;BME280;60508;42.622;25.416;2022-12-10T10:17:31;96031.38;;;36.40;20.89
45078;BME280;60508;42.622;25.416;2022-12-10T10:19:59;96027.53;;;35.26;22.02
45078;BME280;60508;42.622;25.416;2022-12-10T10:22:25;96021.16;;;34.44;22.53
45078;BME280;60508;42.622;25.416;2022-12-10T10:24:52;96022.41;;;34.67;22.84
45078;BME280;60508;42.622;25.416;2022-12-10T10:27:24;96025.00;;;35.08;22.37
45078;BME280;60508;42.622;25.416;2022-12-10T10:29:56;96009.44;;;35.35;22.23
45078;BME280;60508;42.622;25.416;2022-12-10T10:32:25;96018.41;;;34.41;23.10
45078;BME280;60508;42.622;25.416;2022-12-10T10:34:57;95993.03;;;33.62;24.03
45078;BME280;60508;42.622;25.416;2022-12-10T10:37:41;95993.31;;;34.41;23.26
45078;BME280;60508;42.622;25.416;2022-12-10T10:43:15;95986.13;;;35.45;22.08
45078;BME280;60508;42.622;25.416;2022-12-10T10:45:51;95984.88;;;37.16;21.02
45078;BME280;60508;42.622;25.416;2022-12-10T10:48:21;95989.69;;;37.32;20.58
45078;BME280;60508;42.622;25.416;2022-12-10T10:50:50;95983.88;;;37.55;20.31
45078;BME280;60508;42.622;25.416;2022-12-10T10:53:27;95972.06;;;34.78;22.17
45078;BME280;60508;42.622;25.416;2022-12-10T10:55:57;95957.59;;;36.14;21.68
45078;BME280;60508;42.622;25.416;2022-12-10T10:58:24;95971.84;;;37.55;20.60
45078;BME280;60508;42.622;25.416;2022-12-10T11:00:56;95969.97;;;37.35;20.48
45078;BME280;60508;42.622;25.416;2022-12-10T11:03:24;95962.16;;;34.73;22.74
45078;BME280;60508;42.622;25.416;2022-12-10T11:05:49;95969.09;;;35.99;22.15
45078;BME280;60508;42.622;25.416;2022-12-10T11:08:18;95966.97;;;36.27;21.38
45078;BME280;60508;42.622;25.416;2022-12-10T11:10:49;95959.38;;;35.24;22.92
45078;BME280;60508;42.622;25.416;2022-12-10T11:13:35;95947.72;;;35.29;22.07
45078;BME280;60508;42.622;25.416;2022-12-10T11:16:23;95949.38;;;36.27;21.39
45078;BME280;60508;42.622;25.416;2022-12-10T11:19:00;95939.47;;;37.24;20.85
45078;BME280;60508;42.622;25.416;2022-12-10T11:21:31;95944.69;;;38.10;19.83
45078;BME280;60508;42.622;25.416;2022-12-10T11:23:59;95947.41;;;38.14;19.66
45078;BME280;60508;42.622;25.416;2022-12-10T11:29:43;95920.75;;;37.80;19.97
45078;BME280;60508;42.622;25.416;2022-12-10T11:40:49;95920.75;;;34.95;21.97
45078;BME280;60508;42.622;25.416;2022-12-10T11:50:49;95911.38;;;29.06;30.13
45078;BME280;60508;42.622;25.416;2022-12-10T12:12:21;95863.13;;;28.92;30.73
45078;BME280;60508;42.622;25.416;2022-12-10T12:15:16;95854.50;;;27.33;32.88
45078;BME280;60508;42.622;25.416;2022-12-10T12:18:53;95843.56;;;26.07;35.15
45078;BME280;60508;42.622;25.416;2022-12-10T12:21:04;95834.03;;;24.64;38.38
45078;BME280;60508;42.622;25.416;2022-12-10T12:23:45;95825.44;;;23.41;40.90
45078;BME280;60508;42.622;25.416;2022-12-10T12:26:39;95820.69;;;22.32;44.15
45078;BME280;60508;42.622;25.416;2022-12-10T12:29:35;95816.28;;;21.69;46.59
45078;BME280;60508;42.622;25.416;2022-12-10T12:32:17;95815.63;;;21.06;49.19
45078;BME280;60508;42.622;25.416;2022-12-10T12:34:50;95819.06;;;20.94;49.66
45078;BME280;60508;42.622;25.416;2022-12-10T12:37:22;95820.41;;;20.67;51.27
45078;BME280;60508;42.622;25.416;2022-12-10T12:52:50;95823.16;;;19.51;56.08
45078;BME280;60508;42.622;25.416;2022-12-10T12:55:22;95823.16;;;19.42;56.54
45078;BME280;60508;42.622;25.416;2022-12-10T12:57:57;95830.53;;;19.42;56.44
45078;BME280;60508;42.622;25.416;2022-12-10T13:00:30;95836.47;;;19.26;57.14
45078;BME280;60508;42.622;25.416;2022-12-10T13:03:19;95835.72;;;19.00;58.07
45078;BME280;60508;42.622;25.416;2022-12-10T13:05:49;95832.34;;;18.94;58.90
45078;BME280;60508;42.622;25.416;2022-12-10T13:13:23;95819.94;;;18.44;60.80
45078;BME280;60508;42.622;25.416;2022-12-10T13:15:50;95810.16;;;18.34;61.49
45078;BME280;60508;42.622;25.416;2022-12-10T13:33:52;95792.97;;;17.05;67.63
45078;BME280;60508;42.622;25.416;2022-12-10T13:36:25;95788.47;;;17.00;67.95
45078;BME280;60508;42.622;25.416;2022-12-10T13:41:33;95815.56;;;16.77;68.99
45078;BME280;60508;42.622;25.416;2022-12-10T13:46:59;95818.00;;;16.42;70.66
45078;BME280;60508;42.622;25.416;2022-12-10T13:49:28;95823.00;;;16.35;70.97
45078;BME280;60508;42.622;25.416;2022-12-10T14:00:19;95794.06;;;15.80;74.07
45078;BME280;60508;42.622;25.416;2022-12-10T14:08:17;95781.63;;;15.79;74.13
45078;BME280;60508;42.622;25.416;2022-12-10T14:10:44;95787.09;;;15.74;74.44
45078;BME280;60508;42.622;25.416;2022-12-10T14:13:13;95792.41;;;15.65;74.71
45078;BME280;60508;42.622;25.416;2022-12-10T14:15:47;95775.16;;;15.61;74.90
45078;BME280;60508;42.622;25.416;2022-12-10T14:18:17;95771.84;;;15.64;75.03
45078;BME280;60508;42.622;25.416;2022-12-10T14:20:49;95761.22;;;15.54;75.34
45078;BME280;60508;42.622;25.416;2022-12-10T14:23:25;95776.06;;;15.43;76.10
45078;BME280;60508;42.622;25.416;2022-12-10T14:28:39;95781.81;;;15.08;77.56
45078;BME280;60508;42.622;25.416;2022-12-10T14:31:09;95777.28;;;15.04;77.78
45078;BME280;60508;42.622;25.416;2022-12-10T14:33:37;95755.94;;;15.02;77.84
45078;BME280;60508;42.622;25.416;2022-12-10T14:36:03;95751.28;;;14.89;78.17
45078;BME280;60508;42.622;25.416;2022-12-10T14:38:31;95751.16;;;14.80;79.07
45078;BME280;60508;42.622;25.416;2022-12-10T14:40:59;95748.94;;;14.68;78.80
45078;BME280;60508;42.622;25.416;2022-12-10T14:43:34;95752.44;;;14.69;78.18
45078;BME280;60508;42.622;25.416;2022-12-10T14:46:03;95760.03;;;14.67;77.87
45078;BME280;60508;42.622;25.416;2022-12-10T14:48:30;95752.03;;;14.56;78.17
45078;BME280;60508;42.622;25.416;2022-12-10T14:51:03;95743.38;;;14.59;78.49
45078;BME280;60508;42.622;25.416;2022-12-10T14:53:31;95753.34;;;14.59;78.40
45078;BME280;60508;42.622;25.416;2022-12-10T14:56:04;95742.06;;;14.38;79.04
45078;BME280;60508;42.622;25.416;2022-12-10T14:58:45;95756.66;;;14.37;79.76
45078;BME280;60508;42.622;25.416;2022-12-10T15:01:17;95742.44;;;14.31;80.26
45078;BME280;60508;42.622;25.416;2022-12-10T15:03:47;95738.97;;;14.25;80.63
45078;BME280;60508;42.622;25.416;2022-12-10T15:06:16;95737.44;;;14.19;80.86
45078;BME280;60508;42.622;25.416;2022-12-10T15:08:45;95746.06;;;14.02;81.53
45078;BME280;60508;42.622;25.416;2022-12-10T15:11:16;95751.03;;;13.95;82.01
45078;BME280;60508;42.622;25.416;2022-12-10T15:13:51;95744.88;;;13.90;82.90
45078;BME280;60508;42.622;25.416;2022-12-10T15:16:29;95739.25;;;13.86;83.61
45078;BME280;60508;42.622;25.416;2022-12-10T15:19:07;95734.28;;;13.93;83.64
45078;BME280;60508;42.622;25.416;2022-12-10T15:21:41;95728.75;;;13.84;84.37
45078;BME280;60508;42.622;25.416;2022-12-10T15:24:27;95727.78;;;13.75;84.56